sensor_id;sensor_type;location;lat;lon;timestamp;pressure;altitude;pressure_sealevel;temperature;humidity
59289;BME280;45056;47.602;9.886;2024-03-07T00:00:18;93184.81;;;3.56;69.17
59289;BME280;45056;47.602;9.886;2024-03-07T00:02:50;93183.28;;;3.55;69.24
59289;BME280;45056;47.602;9.886;2024-03-07T00:05:20;93187.09;;;3.58;69.21
59289;BME280;45056;47.602;9.886;2024-03-07T00:07:50;93178.66;;;3.59;69.14
59289;BME280;45056;47.602;9.886;2024-03-07T00:10:19;93174.44;;;3.58;69.03
59289;BME280;45056;47.602;9.886;2024-03-07T00:12:49;93173.28;;;3.59;69.14
59289;BME280;45056;47.602;9.886;2024-03-07T00:15:17;93177.50;;;3.57;69.01
59289;BME280;45056;47.602;9.886;2024-03-07T00:17:45;93182.50;;;3.55;69.18
59289;BME280;45056;47.602;9.886;2024-03-07T00:20:13;93184.81;;;3.53;69.10
59289;BME280;45056;47.602;9.886;2024-03-07T00:22:45;93174.06;;;3.53;69.28
59289;BME280;45056;47.602;9.886;2024-03-07T00:25:13;93176.38;;;3.54;69.27
59289;BME280;45056;47.602;9.886;2024-03-07T00:27:45;93172.53;;;3.55;69.34
59289;BME280;45056;47.602;9.886;2024-03-07T00:30:15;93173.28;;;3.56;69.55
59289;BME280;45056;47.602;9.886;2024-03-07T00:32:44;93168.66;;;3.60;69.36
59289;BME280;45056;47.602;9.886;2024-03-07T00:35:14;93170.97;;;3.61;69.26
59289;BME280;45056;47.602;9.886;2024-03-07T00:37:42;93174.06;;;3.60;69.17
59289;BME280;45056;47.602;9.886;2024-03-07T00:40:11;93167.50;;;3.61;69.23
59289;BME280;45056;47.602;9.886;2024-03-07T00:42:39;93164.44;;;3.59;69.26
59289;BME280;45056;47.602;9.886;2024-03-07T00:45:08;93164.03;;;3.60;69.19
59289;BME280;45056;47.602;9.886;2024-03-07T00:47:37;93163.28;;;3.60;69.08
59289;BME280;45056;47.602;9.886;2024-03-07T00:50:06;93168.25;;;3.61;69.08
59289;BME280;45056;47.602;9.886;2024-03-07T00:52:35;93160.19;;;3.61;69.12
59289;BME280;45056;47.602;9.886;2024-03-07T00:55:05;93169.44;;;3.60;69.27
59289;BME280;45056;47.602;9.886;2024-03-07T00:57:35;93165.19;;;3.59;69.14
59289;BME280;45056;47.602;9.886;2024-03-07T01:00:03;93157.13;;;3.59;69.15
59289;BME280;45056;47.602;9.886;2024-03-07T01:02:39;93158.66;;;3.60;69.26
59289;BME280;45056;47.602;9.886;2024-03-07T01:05:10;93159.06;;;3.59;69.19
59289;BME280;45056;47.602;9.886;2024-03-07T01:07:39;93163.28;;;3.56;69.27
59289;BME280;45056;47.602;9.886;2024-03-07T01:10:08;93159.06;;;3.55;69.30
59289;BME280;45056;47.602;9.886;2024-03-07T01:12:36;93154.84;;;3.54;69.45
59289;BME280;45056;47.602;9.886;2024-03-07T01:15:04;93149.47;;;3.54;69.53
59289;BME280;45056;47.602;9.886;2024-03-07T01:17:33;93146.38;;;3.56;69.60
59289;BME280;45056;47.602;9.886;2024-03-07T01:20:03;93144.47;;;3.56;69.63
59289;BME280;45056;47.602;9.886;2024-03-07T01:22:32;93151.00;;;3.59;69.54
59289;BME280;45056;47.602;9.886;2024-03-07T01:25:00;93140.97;;;3.59;69.34
59289;BME280;45056;47.602;9.886;2024-03-07T01:27:28;93132.91;;;3.59;69.30
59289;BME280;45056;47.602;9.886;2024-03-07T01:29:56;93129.06;;;3.60;69.52
59289;BME280;45056;47.602;9.886;2024-03-07T01:32:24;93126.38;;;3.60;69.37
59289;BME280;45056;47.602;9.886;2024-03-07T01:34:52;93123.69;;;3.60;69.35
59289;BME280;45056;47.602;9.886;2024-03-07T01:37:21;93124.06;;;3.63;69.49
59289;BME280;45056;47.602;9.886;2024-03-07T01:39:49;93118.66;;;3.63;69.51
59289;BME280;45056;47.602;9.886;2024-03-07T01:42:17;93117.50;;;3.64;69.42
59289;BME280;45056;47.602;9.886;2024-03-07T01:44:45;93117.13;;;3.65;69.52
59289;BME280;45056;47.602;9.886;2024-03-07T01:47:13;93113.28;;;3.66;69.27
59289;BME280;45056;47.602;9.886;2024-03-07T01:49:42;93117.50;;;3.67;69.27
59289;BME280;45056;47.602;9.886;2024-03-07T01:52:11;93110.19;;;3.68;69.18
59289;BME280;45056;47.602;9.886;2024-03-07T01:54:42;93111.72;;;3.69;69.13
59289;BME280;45056;47.602;9.886;2024-03-07T01:57:11;93098.25;;;3.69;69.28
59289;BME280;45056;47.602;9.886;2024-03-07T01:59:40;93105.94;;;3.70;69.46
59289;BME280;45056;47.602;9.886;2024-03-07T02:02:10;93097.88;;;3.70;69.16
59289;BME280;45056;47.602;9.886;2024-03-07T02:04:38;93103.63;;;3.72;69.16
59289;BME280;45056;47.602;9.886;2024-03-07T02:07:06;93101.31;;;3.71;69.23
59289;BME280;45056;47.602;9.886;2024-03-07T02:09:38;93094.03;;;3.68;69.17
59289;BME280;45056;47.602;9.886;2024-03-07T02:12:07;93095.97;;;3.64;69.28
59289;BME280;45056;47.602;9.886;2024-03-07T02:14:36;93088.69;;;3.60;69.54
59289;BME280;45056;47.602;9.886;2024-03-07T02:17:04;93096.78;;;3.60;69.57
59289;BME280;45056;47.602;9.886;2024-03-07T02:19:33;93091.81;;;3.55;69.37
59289;BME280;45056;47.602;9.886;2024-03-07T02:22:02;93090.28;;;3.51;69.75
59289;BME280;45056;47.602;9.886;2024-03-07T02:24:31;93091.44;;;3.50;69.55
59289;BME280;45056;47.602;9.886;2024-03-07T02:26:59;93087.59;;;3.51;69.73
59289;BME280;45056;47.602;9.886;2024-03-07T02:29:27;93085.31;;;3.49;69.88
59289;BME280;45056;47.602;9.886;2024-03-07T02:31:57;93084.16;;;3.50;69.82
59289;BME280;45056;47.602;9.886;2024-03-07T02:34:25;93077.97;;;3.53;69.84
59289;BME280;45056;47.602;9.886;2024-03-07T02:36:53;93078.72;;;3.54;69.75
59289;BME280;45056;47.602;9.886;2024-03-07T02:39:23;93077.94;;;3.57;69.71
59289;BME280;45056;47.602;9.886;2024-03-07T02:41:52;93076.41;;;3.59;69.90
59289;BME280;45056;47.602;9.886;2024-03-07T02:44:20;93075.63;;;3.63;69.67
59289;BME280;45056;47.602;9.886;2024-03-07T02:46:48;93070.59;;;3.65;69.75
59289;BME280;45056;47.602;9.886;2024-03-07T02:49:16;93079.84;;;3.67;69.60
59289;BME280;45056;47.602;9.886;2024-03-07T02:51:44;93078.66;;;3.68;69.66
59289;BME280;45056;47.602;9.886;2024-03-07T02:54:12;93074.03;;;3.69;69.66
59289;BME280;45056;47.602;9.886;2024-03-07T02:56:42;93067.91;;;3.68;69.63
59289;BME280;45056;47.602;9.886;2024-03-07T02:59:10;93069.44;;;3.69;69.68
59289;BME280;45056;47.602;9.886;2024-03-07T03:01:38;93074.81;;;3.69;69.69
59289;BME280;45056;47.602;9.886;2024-03-07T03:04:06;93071.72;;;3.71;69.65
59289;BME280;45056;47.602;9.886;2024-03-07T03:06:34;93067.13;;;3.71;69.65
59289;BME280;45056;47.602;9.886;2024-03-07T03:09:02;93073.66;;;3.70;69.64
59289;BME280;45056;47.602;9.886;2024-03-07T03:11:31;93065.59;;;3.67;69.62
59289;BME280;45056;47.602;9.886;2024-03-07T03:14:01;93064.06;;;3.66;69.74
59289;BME280;45056;47.602;9.886;2024-03-07T03:16:30;93067.91;;;3.65;69.73
59289;BME280;45056;47.602;9.886;2024-03-07T03:18:59;93062.53;;;3.65;69.65
59289;BME280;45056;47.602;9.886;2024-03-07T03:21:26;93052.91;;;3.67;69.79
59289;BME280;45056;47.602;9.886;2024-03-07T03:23:54;93061.00;;;3.67;69.76
59289;BME280;45056;47.602;9.886;2024-03-07T03:26:23;93067.13;;;3.68;69.78
59289;BME280;45056;47.602;9.886;2024-03-07T03:28:51;93062.53;;;3.68;69.62
59289;BME280;45056;47.602;9.886;2024-03-07T03:31:21;93061.75;;;3.68;69.54
59289;BME280;45056;47.602;9.886;2024-03-07T03:33:49;93059.84;;;3.68;69.52
59289;BME280;45056;47.602;9.886;2024-03-07T03:36:17;93071.34;;;3.69;69.70
59289;BME280;45056;47.602;9.886;2024-03-07T03:38:45;93064.06;;;3.69;69.46
59289;BME280;45056;47.602;9.886;2024-03-07T03:41:15;93056.72;;;3.70;69.51
59289;BME280;45056;47.602;9.886;2024-03-07T03:43:43;93057.50;;;3.70;69.60
59289;BME280;45056;47.602;9.886;2024-03-07T03:46:14;93053.66;;;3.71;69.46
59289;BME280;45056;47.602;9.886;2024-03-07T03:48:43;93055.19;;;3.72;69.38
59289;BME280;45056;47.602;9.886;2024-03-07T03:51:11;93054.03;;;3.73;69.60
59289;BME280;45056;47.602;9.886;2024-03-07T03:53:42;93050.19;;;3.74;69.46
59289;BME280;45056;47.602;9.886;2024-03-07T03:56:10;93046.72;;;3.74;69.50
59289;BME280;45056;47.602;9.886;2024-03-07T03:58:39;93052.88;;;3.71;69.40
59289;BME280;45056;47.602;9.886;2024-03-07T04:01:09;93047.91;;;3.69;69.26
59289;BME280;45056;47.602;9.886;2024-03-07T04:03:41;93042.16;;;3.67;69.35
59289;BME280;45056;47.602;9.886;2024-03-07T04:06:10;93041.41;;;3.63;69.51
59289;BME280;45056;47.602;9.886;2024-03-07T04:08:38;93040.25;;;3.64;69.42
59289;BME280;45056;47.602;9.886;2024-03-07T04:11:06;93034.88;;;3.64;69.59
59289;BME280;45056;47.602;9.886;2024-03-07T04:13:36;93041.38;;;3.67;69.66
59289;BME280;45056;47.602;9.886;2024-03-07T04:16:04;93041.75;;;3.69;69.54
59289;BME280;45056;47.602;9.886;2024-03-07T04:18:33;93035.19;;;3.70;69.33
59289;BME280;45056;47.602;9.886;2024-03-07T04:21:00;93032.88;;;3.72;69.49
59289;BME280;45056;47.602;9.886;2024-03-07T04:23:30;93034.41;;;3.73;69.29
59289;BME280;45056;47.602;9.886;2024-03-07T04:25:58;93036.34;;;3.72;69.41
59289;BME280;45056;47.602;9.886;2024-03-07T04:28:26;93034.03;;;3.74;69.09
59289;BME280;45056;47.602;9.886;2024-03-07T04:30:54;93024.03;;;3.75;69.11
59289;BME280;45056;47.602;9.886;2024-03-07T04:33:22;93023.25;;;3.74;69.14
59289;BME280;45056;47.602;9.886;2024-03-07T04:35:50;93025.94;;;3.78;69.22
59289;BME280;45056;47.602;9.886;2024-03-07T04:38:20;93024.41;;;3.77;69.36
59289;BME280;45056;47.602;9.886;2024-03-07T04:40:49;93028.63;;;3.78;69.23
59289;BME280;45056;47.602;9.886;2024-03-07T04:43:17;93032.84;;;3.79;69.30
59289;BME280;45056;47.602;9.886;2024-03-07T04:45:45;93024.78;;;3.79;69.23
59289;BME280;45056;47.602;9.886;2024-03-07T04:48:13;93023.22;;;3.82;69.28
59289;BME280;45056;47.602;9.886;2024-03-07T04:50:41;93018.59;;;3.82;69.25
59289;BME280;45056;47.602;9.886;2024-03-07T04:53:09;93023.63;;;3.80;69.28
59289;BME280;45056;47.602;9.886;2024-03-07T04:55:37;93028.63;;;3.78;69.30
59289;BME280;45056;47.602;9.886;2024-03-07T04:58:07;93026.72;;;3.75;69.33
59289;BME280;45056;47.602;9.886;2024-03-07T05:00:34;93020.19;;;3.76;69.39
59289;BME280;45056;47.602;9.886;2024-03-07T05:03:03;93019.03;;;3.77;69.27
59289;BME280;45056;47.602;9.886;2024-03-07T05:05:31;93018.63;;;3.79;69.46
59289;BME280;45056;47.602;9.886;2024-03-07T05:07:59;93020.56;;;3.78;69.28
59289;BME280;45056;47.602;9.886;2024-03-07T05:10:27;93016.69;;;3.79;69.54
59289;BME280;45056;47.602;9.886;2024-03-07T05:12:57;93022.09;;;3.79;69.50
59289;BME280;45056;47.602;9.886;2024-03-07T05:15:26;93021.69;;;3.81;69.46
59289;BME280;45056;47.602;9.886;2024-03-07T05:17:55;93012.44;;;3.82;69.33
59289;BME280;45056;47.602;9.886;2024-03-07T05:20:23;93014.75;;;3.83;69.26
59289;BME280;45056;47.602;9.886;2024-03-07T05:22:51;93004.72;;;3.84;69.51
59289;BME280;45056;47.602;9.886;2024-03-07T05:25:20;93008.56;;;3.86;69.32
59289;BME280;45056;47.602;9.886;2024-03-07T05:27:49;93012.78;;;3.87;69.29
59289;BME280;45056;47.602;9.886;2024-03-07T05:30:17;93012.44;;;3.85;69.25
59289;BME280;45056;47.602;9.886;2024-03-07T05:32:47;93012.44;;;3.85;69.17
59289;BME280;45056;47.602;9.886;2024-03-07T05:35:15;93015.13;;;3.85;69.38
59289;BME280;45056;47.602;9.886;2024-03-07T05:37:43;93012.81;;;3.84;69.24
59289;BME280;45056;47.602;9.886;2024-03-07T05:40:13;93008.59;;;3.83;69.39
59289;BME280;45056;47.602;9.886;2024-03-07T05:42:41;93007.47;;;3.80;69.30
59289;BME280;45056;47.602;9.886;2024-03-07T05:45:09;93012.06;;;3.80;69.38
59289;BME280;45056;47.602;9.886;2024-03-07T05:47:40;93009.00;;;3.78;69.40
59289;BME280;45056;47.602;9.886;2024-03-07T05:50:09;93009.38;;;3.80;69.25
59289;BME280;45056;47.602;9.886;2024-03-07T05:52:40;93010.16;;;3.80;69.32
59289;BME280;45056;47.602;9.886;2024-03-07T05:55:08;93015.91;;;3.82;69.23
59289;BME280;45056;47.602;9.886;2024-03-07T05:57:37;93006.66;;;3.83;69.41
59289;BME280;45056;47.602;9.886;2024-03-07T06:00:06;93015.13;;;3.85;69.34
59289;BME280;45056;47.602;9.886;2024-03-07T06:02:36;92995.47;;;3.88;69.14
59289;BME280;45056;47.602;9.886;2024-03-07T06:05:05;93002.03;;;3.87;69.25
59289;BME280;45056;47.602;9.886;2024-03-07T06:07:40;93003.94;;;3.87;69.49
59289;BME280;45056;47.602;9.886;2024-03-07T06:10:08;93006.63;;;3.87;69.55
59289;BME280;45056;47.602;9.886;2024-03-07T06:12:37;93009.69;;;3.89;69.33
59289;BME280;45056;47.602;9.886;2024-03-07T06:15:12;93011.63;;;3.88;69.45
59289;BME280;45056;47.602;9.886;2024-03-07T06:17:40;93018.94;;;3.88;69.50
59289;BME280;45056;47.602;9.886;2024-03-07T06:20:10;93013.16;;;3.89;69.42
59289;BME280;45056;47.602;9.886;2024-03-07T06:22:50;93010.84;;;3.88;69.52
59289;BME280;45056;47.602;9.886;2024-03-07T06:25:18;93012.44;;;3.85;69.43
59289;BME280;45056;47.602;9.886;2024-03-07T06:27:49;93016.66;;;3.83;69.65
59289;BME280;45056;47.602;9.886;2024-03-07T06:30:18;93013.97;;;3.83;69.57
59289;BME280;45056;47.602;9.886;2024-03-07T06:32:46;93015.53;;;3.80;69.44
59289;BME280;45056;47.602;9.886;2024-03-07T06:35:14;93012.47;;;3.78;69.66
59289;BME280;45056;47.602;9.886;2024-03-07T06:37:44;93011.34;;;3.75;69.54
59289;BME280;45056;47.602;9.886;2024-03-07T06:40:13;93006.34;;;3.74;69.62
59289;BME280;45056;47.602;9.886;2024-03-07T06:42:47;93002.91;;;3.73;69.64
59289;BME280;45056;47.602;9.886;2024-03-07T06:45:16;93003.66;;;3.74;69.82
59289;BME280;45056;47.602;9.886;2024-03-07T06:47:44;93006.34;;;3.74;69.69
59289;BME280;45056;47.602;9.886;2024-03-07T06:50:13;93005.56;;;3.77;70.03
59289;BME280;45056;47.602;9.886;2024-03-07T06:52:43;92999.78;;;3.79;69.86
59289;BME280;45056;47.602;9.886;2024-03-07T06:55:15;93004.78;;;3.80;70.02
59289;BME280;45056;47.602;9.886;2024-03-07T06:57:45;93002.84;;;3.81;69.98
59289;BME280;45056;47.602;9.886;2024-03-07T07:00:15;93007.84;;;3.82;69.84
59289;BME280;45056;47.602;9.886;2024-03-07T07:02:46;93003.97;;;3.83;69.63
59289;BME280;45056;47.602;9.886;2024-03-07T07:05:15;92999.34;;;3.84;69.87
59289;BME280;45056;47.602;9.886;2024-03-07T07:07:44;93003.97;;;3.83;69.77
59289;BME280;45056;47.602;9.886;2024-03-07T07:10:15;92998.59;;;3.83;69.89
59289;BME280;45056;47.602;9.886;2024-03-07T07:12:45;92992.84;;;3.81;69.95
59289;BME280;45056;47.602;9.886;2024-03-07T07:15:16;92989.78;;;3.79;70.07
59289;BME280;45056;47.602;9.886;2024-03-07T07:17:47;92987.47;;;3.78;70.07
59289;BME280;45056;47.602;9.886;2024-03-07T07:20:17;92982.91;;;3.74;70.26
59289;BME280;45056;47.602;9.886;2024-03-07T07:22:46;92977.91;;;3.73;70.41
59289;BME280;45056;47.602;9.886;2024-03-07T07:25:17;92982.50;;;3.76;70.31
59289;BME280;45056;47.602;9.886;2024-03-07T07:27:46;92979.75;;;3.83;70.40
59289;BME280;45056;47.602;9.886;2024-03-07T07:30:17;92976.28;;;3.86;70.00
59289;BME280;45056;47.602;9.886;2024-03-07T07:32:48;92982.00;;;3.92;70.18
59289;BME280;45056;47.602;9.886;2024-03-07T07:35:20;92974.66;;;3.96;70.09
59289;BME280;45056;47.602;9.886;2024-03-07T07:37:50;92977.66;;;4.02;69.91
59289;BME280;45056;47.602;9.886;2024-03-07T07:40:22;92969.19;;;4.07;69.63
59289;BME280;45056;47.602;9.886;2024-03-07T07:42:53;92969.84;;;4.15;69.68
59289;BME280;45056;47.602;9.886;2024-03-07T07:45:23;92972.50;;;4.22;69.61
59289;BME280;45056;47.602;9.886;2024-03-07T07:47:52;92967.41;;;4.31;69.43
59289;BME280;45056;47.602;9.886;2024-03-07T07:50:23;92963.00;;;4.48;69.15
59289;BME280;45056;47.602;9.886;2024-03-07T07:52:52;92963.16;;;4.69;68.81
59289;BME280;45056;47.602;9.886;2024-03-07T07:55:25;92974.53;;;4.84;67.97
59289;BME280;45056;47.602;9.886;2024-03-07T07:57:56;92966.81;;;4.86;67.15
59289;BME280;45056;47.602;9.886;2024-03-07T08:00:26;92970.66;;;4.85;67.35
59289;BME280;45056;47.602;9.886;2024-03-07T08:02:58;92971.84;;;4.84;67.50
59289;BME280;45056;47.602;9.886;2024-03-07T08:05:29;92969.09;;;4.87;67.48
59289;BME280;45056;47.602;9.886;2024-03-07T08:08:00;92968.31;;;4.87;67.30
59289;BME280;45056;47.602;9.886;2024-03-07T08:10:35;92973.00;;;4.83;67.23
59289;BME280;45056;47.602;9.886;2024-03-07T08:13:05;92965.72;;;4.80;67.53
59289;BME280;45056;47.602;9.886;2024-03-07T08:15:35;92966.84;;;4.82;67.52
59289;BME280;45056;47.602;9.886;2024-03-07T08:18:03;92968.34;;;4.83;67.25
59289;BME280;45056;47.602;9.886;2024-03-07T08:20:35;92967.25;;;4.81;66.89
59289;BME280;45056;47.602;9.886;2024-03-07T08:23:03;92962.25;;;4.79;67.21
59289;BME280;45056;47.602;9.886;2024-03-07T08:25:33;92967.25;;;4.81;67.46
59289;BME280;45056;47.602;9.886;2024-03-07T08:28:01;92959.16;;;4.81;67.36
59289;BME280;45056;47.602;9.886;2024-03-07T08:30:29;92962.22;;;4.83;67.49
59289;BME280;45056;47.602;9.886;2024-03-07T08:32:58;92960.59;;;4.89;67.30
59289;BME280;45056;47.602;9.886;2024-03-07T08:35:29;92962.47;;;4.92;67.34
59289;BME280;45056;47.602;9.886;2024-03-07T08:37:57;92964.44;;;4.91;67.49
59289;BME280;45056;47.602;9.886;2024-03-07T08:40:26;92949.81;;;4.89;67.49
59289;BME280;45056;47.602;9.886;2024-03-07T08:43:00;92953.69;;;4.88;67.54
59289;BME280;45056;47.602;9.886;2024-03-07T08:45:30;92952.88;;;4.91;67.83
59289;BME280;45056;47.602;9.886;2024-03-07T08:48:00;92947.78;;;4.97;67.75
59289;BME280;45056;47.602;9.886;2024-03-07T08:50:30;92953.50;;;5.02;67.35
59289;BME280;45056;47.602;9.886;2024-03-07T08:53:00;92950.28;;;5.11;67.21
59289;BME280;45056;47.602;9.886;2024-03-07T08:55:28;92953.72;;;5.15;66.72
59289;BME280;45056;47.602;9.886;2024-03-07T08:57:57;92951.44;;;5.14;66.63
59289;BME280;45056;47.602;9.886;2024-03-07T09:00:26;92952.59;;;5.13;66.61
59289;BME280;45056;47.602;9.886;2024-03-07T09:02:56;92944.16;;;5.11;66.48
59289;BME280;45056;47.602;9.886;2024-03-07T09:05:25;92951.88;;;5.09;66.50
59289;BME280;45056;47.602;9.886;2024-03-07T09:07:54;92949.53;;;5.11;66.53
59289;BME280;45056;47.602;9.886;2024-03-07T09:10:22;92945.69;;;5.12;66.45
59289;BME280;45056;47.602;9.886;2024-03-07T09:12:52;92943.72;;;5.12;66.55
59289;BME280;45056;47.602;9.886;2024-03-07T09:15:20;92947.19;;;5.13;66.40
59289;BME280;45056;47.602;9.886;2024-03-07T09:17:51;92947.16;;;5.16;65.93
59289;BME280;45056;47.602;9.886;2024-03-07T09:20:19;92938.63;;;5.22;65.55
59289;BME280;45056;47.602;9.886;2024-03-07T09:22:47;92945.88;;;5.25;65.44
59289;BME280;45056;47.602;9.886;2024-03-07T09:25:17;92940.81;;;5.30;65.45
59289;BME280;45056;47.602;9.886;2024-03-07T09:27:46;92938.03;;;5.34;65.73
59289;BME280;45056;47.602;9.886;2024-03-07T09:30:14;92941.09;;;5.36;65.28
59289;BME280;45056;47.602;9.886;2024-03-07T09:32:45;92941.06;;;5.40;65.17
59289;BME280;45056;47.602;9.886;2024-03-07T09:35:15;92939.47;;;5.42;65.29
59289;BME280;45056;47.602;9.886;2024-03-07T09:37:43;92929.44;;;5.43;64.97
59289;BME280;45056;47.602;9.886;2024-03-07T09:40:12;92937.53;;;5.43;65.08
59289;BME280;45056;47.602;9.886;2024-03-07T09:42:43;92937.06;;;5.48;65.21
59289;BME280;45056;47.602;9.886;2024-03-07T09:45:15;92932.38;;;5.52;65.13
59289;BME280;45056;47.602;9.886;2024-03-07T09:47:46;92934.22;;;5.59;65.03
59289;BME280;45056;47.602;9.886;2024-03-07T09:50:19;92936.41;;;5.68;65.00
59289;BME280;45056;47.602;9.886;2024-03-07T09:52:49;92932.44;;;5.72;64.97
59289;BME280;45056;47.602;9.886;2024-03-07T09:55:20;92931.69;;;5.72;65.13
59289;BME280;45056;47.602;9.886;2024-03-07T09:57:50;92938.69;;;5.69;65.11
59289;BME280;45056;47.602;9.886;2024-03-07T10:00:20;92940.31;;;5.63;65.15
59289;BME280;45056;47.602;9.886;2024-03-07T10:02:56;92933.56;;;5.51;65.17
59289;BME280;45056;47.602;9.886;2024-03-07T10:05:28;92927.44;;;5.47;65.75
59289;BME280;45056;47.602;9.886;2024-03-07T10:07:58;92933.25;;;5.45;65.55
59289;BME280;45056;47.602;9.886;2024-03-07T10:10:27;92929.13;;;5.37;65.84
59289;BME280;45056;47.602;9.886;2024-03-07T10:12:56;92933.00;;;5.36;66.49
59289;BME280;45056;47.602;9.886;2024-03-07T10:15:28;92921.47;;;5.36;66.97
59289;BME280;45056;47.602;9.886;2024-03-07T10:17:56;92924.44;;;5.41;67.05
59289;BME280;45056;47.602;9.886;2024-03-07T10:20:24;92923.53;;;5.52;67.09
59289;BME280;45056;47.602;9.886;2024-03-07T10:22:54;92929.13;;;5.65;66.76
59289;BME280;45056;47.602;9.886;2024-03-07T10:25:23;92920.25;;;5.64;65.19
59289;BME280;45056;47.602;9.886;2024-03-07T10:27:52;92910.28;;;5.61;65.42
59289;BME280;45056;47.602;9.886;2024-03-07T10:30:21;92921.81;;;5.61;65.59
59289;BME280;45056;47.602;9.886;2024-03-07T10:32:53;92918.06;;;5.55;65.01
59289;BME280;45056;47.602;9.886;2024-03-07T10:35:24;92915.78;;;5.54;65.52
59289;BME280;45056;47.602;9.886;2024-03-07T10:37:54;92916.91;;;5.56;65.96
59289;BME280;45056;47.602;9.886;2024-03-07T10:40:27;92912.66;;;5.55;66.03
59289;BME280;45056;47.602;9.886;2024-03-07T10:42:58;92913.44;;;5.56;66.22
59289;BME280;45056;47.602;9.886;2024-03-07T10:45:29;92913.84;;;5.54;65.93
59289;BME280;45056;47.602;9.886;2024-03-07T10:47:58;92901.81;;;5.59;65.77
59289;BME280;45056;47.602;9.886;2024-03-07T10:50:47;92898.69;;;5.60;65.42
59289;BME280;45056;47.602;9.886;2024-03-07T10:53:32;92891.69;;;5.67;65.76
59289;BME280;45056;47.602;9.886;2024-03-07T10:56:23;92899.22;;;5.75;65.38
59289;BME280;45056;47.602;9.886;2024-03-07T10:59:01;92895.34;;;5.76;65.41
59289;BME280;45056;47.602;9.886;2024-03-07T11:01:47;92896.19;;;5.73;65.25
59289;BME280;45056;47.602;9.886;2024-03-07T11:04:22;92885.00;;;5.75;65.65
59289;BME280;45056;47.602;9.886;2024-03-07T11:06:50;92885.69;;;5.79;66.33
59289;BME280;45056;47.602;9.886;2024-03-07T11:09:22;92885.63;;;5.83;65.85
59289;BME280;45056;47.602;9.886;2024-03-07T11:11:51;92885.16;;;5.88;65.53
59289;BME280;45056;47.602;9.886;2024-03-07T11:14:21;92887.78;;;5.91;64.95
59289;BME280;45056;47.602;9.886;2024-03-07T11:16:50;92883.09;;;5.96;65.03
59289;BME280;45056;47.602;9.886;2024-03-07T11:19:26;92878.78;;;6.02;64.96
59289;BME280;45056;47.602;9.886;2024-03-07T11:21:57;92874.16;;;5.99;65.06
59289;BME280;45056;47.602;9.886;2024-03-07T11:24:28;92861.84;;;5.98;64.82
59289;BME280;45056;47.602;9.886;2024-03-07T11:27:03;92871.13;;;5.97;64.39
59289;BME280;45056;47.602;9.886;2024-03-07T11:29:43;92871.84;;;6.01;64.54
59289;BME280;45056;47.602;9.886;2024-03-07T11:32:15;92857.03;;;6.09;64.65
59289;BME280;45056;47.602;9.886;2024-03-07T11:34:44;92856.13;;;6.16;63.55
59289;BME280;45056;47.602;9.886;2024-03-07T11:37:18;92861.06;;;6.21;63.69
59289;BME280;45056;47.602;9.886;2024-03-07T11:39:50;92859.09;;;6.21;63.75
59289;BME280;45056;47.602;9.886;2024-03-07T11:42:26;92852.81;;;6.28;64.08
59289;BME280;45056;47.602;9.886;2024-03-07T11:44:58;92853.50;;;6.32;63.85
59289;BME280;45056;47.602;9.886;2024-03-07T11:47:36;92850.72;;;6.36;63.86
59289;BME280;45056;47.602;9.886;2024-03-07T11:50:07;92846.22;;;6.29;63.80
59289;BME280;45056;47.602;9.886;2024-03-07T11:52:38;92842.34;;;6.30;64.08
59289;BME280;45056;47.602;9.886;2024-03-07T11:55:12;92849.69;;;6.30;64.50
59289;BME280;45056;47.602;9.886;2024-03-07T11:57:41;92846.16;;;6.33;64.21
59289;BME280;45056;47.602;9.886;2024-03-07T12:00:12;92840.66;;;6.37;64.35
59289;BME280;45056;47.602;9.886;2024-03-07T12:02:43;92839.44;;;6.41;63.44
59289;BME280;45056;47.602;9.886;2024-03-07T12:05:11;92841.38;;;6.41;62.92
59289;BME280;45056;47.602;9.886;2024-03-07T12:07:44;92837.16;;;6.40;62.70
59289;BME280;45056;47.602;9.886;2024-03-07T12:10:17;92839.91;;;6.36;61.85
59289;BME280;45056;47.602;9.886;2024-03-07T12:12:51;92838.75;;;6.37;62.15
59289;BME280;45056;47.602;9.886;2024-03-07T12:15:23;92832.78;;;6.46;62.45
59289;BME280;45056;47.602;9.886;2024-03-07T12:17:54;92832.13;;;6.58;62.33
59289;BME280;45056;47.602;9.886;2024-03-07T12:20:24;92831.22;;;6.65;61.77
59289;BME280;45056;47.602;9.886;2024-03-07T12:22:58;92825.72;;;6.69;61.11
59289;BME280;45056;47.602;9.886;2024-03-07T12:25:30;92821.16;;;6.66;61.52
59289;BME280;45056;47.602;9.886;2024-03-07T12:28:00;92821.59;;;6.64;62.23
59289;BME280;45056;47.602;9.886;2024-03-07T12:30:34;92819.22;;;6.66;62.60
59289;BME280;45056;47.602;9.886;2024-03-07T12:33:04;92820.41;;;6.65;62.29
59289;BME280;45056;47.602;9.886;2024-03-07T12:35:34;92818.63;;;6.58;62.48
59289;BME280;45056;47.602;9.886;2024-03-07T12:38:05;92809.41;;;6.56;62.53
59289;BME280;45056;47.602;9.886;2024-03-07T12:40:39;92812.13;;;6.56;62.14
59289;BME280;45056;47.602;9.886;2024-03-07T12:43:15;92807.41;;;6.60;62.59
59289;BME280;45056;47.602;9.886;2024-03-07T12:45:48;92804.09;;;6.69;62.65
59289;BME280;45056;47.602;9.886;2024-03-07T12:48:17;92810.81;;;6.81;62.90
59289;BME280;45056;47.602;9.886;2024-03-07T12:50:49;92810.22;;;6.89;62.67
59289;BME280;45056;47.602;9.886;2024-03-07T12:53:20;92803.81;;;6.83;61.47
59289;BME280;45056;47.602;9.886;2024-03-07T12:55:49;92803.13;;;6.79;61.71
59289;BME280;45056;47.602;9.886;2024-03-07T12:58:18;92795.13;;;6.92;61.88
59289;BME280;45056;47.602;9.886;2024-03-07T13:00:49;92805.75;;;6.99;60.74
59289;BME280;45056;47.602;9.886;2024-03-07T13:03:17;92804.50;;;7.04;60.68
59289;BME280;45056;47.602;9.886;2024-03-07T13:05:46;92806.44;;;7.03;60.74
59289;BME280;45056;47.602;9.886;2024-03-07T13:08:14;92798.41;;;7.00;60.45
59289;BME280;45056;47.602;9.886;2024-03-07T13:10:43;92795.13;;;6.92;60.47
59289;BME280;45056;47.602;9.886;2024-03-07T13:13:12;92796.09;;;6.82;60.89
59289;BME280;45056;47.602;9.886;2024-03-07T13:15:41;92793.91;;;6.76;61.26
59289;BME280;45056;47.602;9.886;2024-03-07T13:18:13;92790.69;;;6.82;61.60
59289;BME280;45056;47.602;9.886;2024-03-07T13:20:42;92799.84;;;6.88;61.41
59289;BME280;45056;47.602;9.886;2024-03-07T13:23:12;92790.63;;;6.85;60.93